Latest Weather Observations for Cape Sorell

IDT60801

Issued at 12:21 am EDT Saturday 16 November 2019 (issued every 10 minutes, with the page automatically refreshed every 10 minutes)

About weather observations | Map of weather stations | Latest weather observations for TAS | Other Formats
Station Details ID: 097000 Name: CAPE SORELL Lat: -42.20 Lon: 145.17 Height: 19.3 m
Data from the previous 72 hours. | See also: Recent months at Cape Sorell
Date/Time
EDT
Temp
°C
App
Temp
°C
Dew
Point
°C
Rel
Hum
%
Delta-T
°C
Wind Press
QNH
hPa
Press
MSL
hPa
Rain since
9am
mm
Dir  Spd
km/h
Gust
km/h
Spd
kts
Gust
kts
16/12:00am 8.7 0.2 5.3 79 1.5 WSW 39 63 21 34 1008.5 1008.5 2.0
 
Date/Time
EDT
Temp
°C
App
Temp
°C
Dew
Point
°C
Rel
Hum
%
Delta-T
°C
Wind Press
QNH
hPa
Press
MSL
hPa
Rain since
9am
mm
Dir  Spd
km/h
Gust
km/h
Spd
kts
Gust
kts
15/11:49pm 9.8 1.1 5.8 76 1.8 WSW 41 65 22 35 1008.2 1008.2 2.0
15/11:30pm 9.3 0.1 5.3 76 1.8 WSW 43 54 23 29 1008.2 1008.2 2.0
15/11:00pm 9.2 0.4 5.4 77 1.7 WSW 41 56 22 30 1008.0 1008.0 2.0
15/10:30pm 8.0 -1.7 3.8 75 1.8 WSW 44 76 24 41 1008.1 1008.1 1.8
15/10:29pm 7.9 -1.9 3.6 74 1.8 WSW 44 76 24 41 1008.1 1008.1 1.8
15/10:27pm 8.5 -1.0 3.9 73 2.0 WSW 43 76 23 41 1007.5 1007.5 1.8
15/10:26pm 9.7 0.8 5.3 74 2.0 WSW 41 76 22 41 1007.5 1007.5 1.6
15/10:11pm 9.6 2.2 5.2 74 2.0 W 33 52 18 28 1007.9 1007.9 1.6
15/10:00pm 9.4 1.2 5.0 74 2.0 W 37 52 20 28 1008.0 1008.0 1.6
15/09:31pm 10.4 1.6 5.4 71 2.3 WSW 41 69 22 37 1007.2 1007.2 1.6
15/09:30pm 10.4 1.6 5.4 71 2.3 WSW 41 50 22 27 1007.5 1007.5 1.6
15/09:00pm 10.1 1.2 5.3 72 2.2 WSW 41 50 22 27 1007.2 1007.2 1.6
15/08:30pm 10.1 0.3 5.5 73 2.1 WSW 46 56 25 30 1006.6 1006.6 1.6
15/08:00pm 9.7 0.3 5.3 74 2.0 WSW 44 59 24 32 1006.3 1006.3 1.6
15/07:31pm 9.5 -1.1 5.3 75 1.9 WSW 50 70 27 38 1006.3 1006.3 1.6
15/07:30pm 9.2 -1.8 5.0 75 1.9 WSW 52 70 28 38 1006.3 1006.3 1.6
15/07:22pm 10.5 1.1 5.5 71 2.3 WSW 44 70 24 38 1005.4 1005.4 1.6
15/07:00pm 10.7 1.6 5.7 71 2.3 WSW 43 54 23 29 1005.5 1005.5 1.6
15/06:33pm 10.9 1.9 6.3 73 2.2 WSW 43 61 23 33 1005.0 1005.0 1.6
15/06:30pm 10.8 2.1 6.2 73 2.1 WSW 41 52 22 28 1005.1 1005.1 1.6
15/06:00pm 10.7 3.2 6.5 75 2.0 WSW 35 48 19 26 1005.1 1005.1 1.6
15/05:30pm 10.1 2.9 5.7 74 2.0 W 33 59 18 32 1005.1 1005.1 1.4
15/05:17pm 11.2 2.7 5.3 67 2.7 W 39 74 21 40 1004.6 1004.6 1.0
15/05:00pm 12.4 4.5 6.2 66 2.9 W 37 54 20 29 1004.6 1004.6 1.0
15/04:30pm 11.9 2.8 5.8 66 2.8 WSW 43 52 23 28 1004.1 1004.1 1.0
15/04:00pm 12.5 2.8 5.7 63 3.2 WSW 46 61 25 33 1003.9 1003.9 1.0
15/03:30pm 12.6 3.9 6.2 65 3.0 WSW 41 52 22 28 1003.6 1003.6 1.0
15/03:00pm 11.8 2.7 6.1 68 2.7 WSW 43 56 23 30 1003.4 1003.4 1.0
15/02:46pm 12.9 5.8 8.2 73 2.3 W 35 54 19 29 1003.6 1003.6 1.0
15/02:30pm 11.0 2.8 6.4 73 2.2 W 39 56 21 30 1003.3 1003.3 1.0
15/02:05pm 8.8 -0.9 3.8 71 2.2 W 44 65 24 35 1003.6 1003.6 1.0
15/02:00pm 10.3 0.4 4.9 69 2.5 W 46 65 25 35 1003.0 1003.0 1.0
15/01:30pm 12.8 4.6 6.6 66 3.0 W 39 52 21 28 1002.9 1002.9 1.0
15/01:00pm 12.1 3.2 7.0 71 2.5 WSW 43 54 23 29 1002.8 1002.8 1.0
15/12:49pm 12.8 6.0 7.5 70 2.6 W 33 57 18 31 1002.7 1002.7 1.0
15/12:30pm 13.5 7.7 8.1 70 2.7 W 28 39 15 21 1003.0 1003.0 1.0
15/12:00pm 12.7 5.9 7.0 68 2.8 W 32 46 17 25 1003.0 1003.0 1.0
15/11:30am 12.4 5.0 6.9 69 2.6 W 35 48 19 26 1003.0 1003.0 1.0
15/11:00am 10.7 2.5 6.5 75 2.0 WSW 39 57 21 31 1003.1 1003.1 1.0
15/10:45am 10.7 1.8 6.8 77 1.8 WSW 43 57 23 31 1002.8 1002.8 1.0
15/10:30am 11.8 6.1 8.5 80 1.6 W 28 39 15 21 1003.2 1003.2 1.0
15/10:00am 10.3 5.0 7.0 80 1.6 W 24 35 13 19 1003.2 1003.2 1.0
15/09:30am 9.0 1.9 5.4 78 1.6 W 32 46 17 25 1003.3 1003.3 0.8
15/09:00am 10.6 4.2 5.2 69 2.5 WNW 28 37 15 20 1003.0 1003.0 3.8
15/08:30am 11.7 6.5 5.6 66 2.8 NW 22 30 12 16 1002.9 1002.9 3.8
15/08:00am 10.8 4.9 5.6 70 2.4 W 26 37 14 20 1003.2 1003.2 3.8
15/07:30am 10.8 3.8 6.0 72 2.2 WSW 32 43 17 23 1003.0 1003.0 3.8
15/07:00am 10.6 3.2 6.7 77 1.8 WSW 35 44 19 24 1002.7 1002.7 3.8
15/06:30am 10.1 2.0 6.8 80 1.6 WSW 39 46 21 25 1002.2 1002.2 3.8
15/06:00am 10.7 4.4 7.4 80 1.6 W 30 39 16 21 1002.1 1002.1 3.8
15/05:30am 10.2 4.3 7.3 82 1.4 WSW 28 39 15 21 1002.0 1002.0 3.8
15/05:00am 10.5 4.6 7.6 82 1.4 W 28 39 15 21 1001.7 1001.7 3.8
15/04:30am 10.5 4.3 7.9 84 1.3 W 30 43 16 23 1001.7 1001.7 3.8
15/04:00am 10.3 2.5 8.1 86 1.1 W 39 50 21 27 1001.5 1001.5 3.8
15/03:30am 10.4 4.0 8.5 88 0.9 W 32 43 17 23 1001.6 1001.6 3.6
15/03:00am 10.9 4.7 9.5 91 0.7 WNW 32 41 17 22 1001.7 1001.7 3.6
15/02:30am 10.8 5.0 9.6 92 0.6 WNW 30 43 16 23 1001.9 1001.9 3.6
15/02:00am 10.4 6.1 9.2 92 0.6 W 22 32 12 17 1002.0 1002.0 3.6
15/01:30am 10.3 4.1 9.2 93 0.5 W 32 46 17 25 1002.3 1002.3 3.6
15/01:00am 10.6 3.1 9.5 93 0.6 WNW 39 50 21 27 1002.5 1002.5 3.6
15/12:30am 11.0 4.8 9.9 93 0.6 WNW 33 43 18 23 1002.6 1002.6 3.6
15/12:00am 10.9 3.5 10.0 94 0.5 WNW 39 50 21 27 1002.8 1002.8 3.6
 
Date/Time
EDT
Temp
°C
App
Temp
°C
Dew
Point
°C
Rel
Hum
%
Delta-T
°C
Wind Press
QNH
hPa
Press
MSL
hPa
Rain since
9am
mm
Dir  Spd
km/h
Gust
km/h
Spd
kts
Gust
kts
14/11:38pm 11.0 4.4 10.1 94 0.5 NW 35 56 19 30 1002.7 1002.7 3.6
14/11:30pm 11.1 5.1 10.2 94 0.5 NW 32 43 17 23 1002.9 1002.9 3.4
14/11:00pm 11.0 3.7 10.1 94 0.5 NW 39 48 21 26 1003.1 1003.1 3.4
14/10:30pm 10.9 3.5 9.8 93 0.6 NW 39 57 21 31 1003.2 1003.2 2.8
14/10:26pm 11.1 4.9 10.0 93 0.6 NW 33 52 18 28 1003.3 1003.3 2.8
14/10:00pm 11.1 3.7 10.0 93 0.6 NW 39 54 21 29 1003.5 1003.5 2.2
14/09:30pm 11.2 5.0 10.0 92 0.6 WNW 33 48 18 26 1003.5 1003.5 1.4
14/09:07pm 11.1 4.1 9.9 92 0.6 NW 37 61 20 33 1003.2 1003.2 1.2
14/09:00pm 11.2 4.6 10.0 92 0.6 NW 35 52 19 28 1003.4 1003.4 1.2
14/08:39pm 11.2 4.2 10.0 92 0.6 NW 37 56 20 30 1003.4 1003.4 1.2
14/08:30pm 11.2 3.5 10.0 92 0.6 NW 41 56 22 30 1003.5 1003.5 1.0
14/08:21pm 11.2 5.0 10.0 92 0.6 NW 33 54 18 29 1003.4 1003.4 1.0
14/08:00pm 11.2 4.2 9.8 91 0.7 NW 37 52 20 28 1003.6 1003.6 1.0
14/07:30pm 11.1 4.8 9.7 91 0.7 NW 33 52 18 28 1004.0 1004.0 1.0
14/07:11pm 11.1 4.8 9.7 91 0.7 NW 33 52 18 28 1004.0 1004.0 0.6
14/07:00pm 11.2 5.9 9.8 91 0.7 NW 28 43 15 23 1004.1 1004.1 0.6
14/06:30pm 11.1 4.4 9.5 90 0.8 NW 35 46 19 25 1004.3 1004.3 0.6
14/06:00pm 11.0 4.9 9.6 91 0.7 NW 32 46 17 25 1004.3 1004.3 0.6
14/05:30pm 10.8 2.9 9.2 90 0.8 WNW 41 52 22 28 1004.3 1004.3 0.6
14/05:00pm 11.5 4.1 9.8 89 0.9 WNW 39 52 21 28 1004.6 1004.6 0.6
14/04:33pm 11.7 5.9 9.6 87 1.1 NW 30 48 16 26 1004.6 1004.6 0.2
14/04:30pm 11.8 6.5 9.7 87 1.1 NW 28 41 15 22 1004.6 1004.6 0.2
14/04:00pm 11.7 5.4 9.6 87 1.1 NW 33 50 18 27 1004.6 1004.6 0.2
14/03:31pm 11.5 5.1 9.2 86 1.2 NW 33 52 18 28 1005.2 1005.2 0.2
14/03:30pm 11.6 5.4 9.3 86 1.2 NW 32 46 17 25 1005.3 1005.3 0.2
14/03:00pm 11.4 4.2 9.1 86 1.2 NW 37 54 20 29 1005.5 1005.5 0.2
14/02:30pm 11.8 6.5 9.7 87 1.1 NW 28 50 15 27 1005.5 1005.5 0.2
14/02:00pm 11.7 6.3 9.6 87 1.1 NW 28 41 15 22 1005.8 1005.8 0.2
14/01:30pm 11.9 7.3 9.6 86 1.2 NW 24 35 13 19 1006.2 1006.2 0.2
14/01:00pm 12.6 6.5 9.6 82 1.5 NW 32 41 17 22 1006.3 1006.3 0.0
14/12:30pm 12.6 6.4 10.1 85 1.3 WNW 33 43 18 23 1006.2 1006.2 0.0
14/12:11pm 12.3 6.7 10.2 87 1.1 NW 30 50 16 27 1006.7 1006.7 0.0
14/12:00pm 12.3 6.7 10.2 87 1.1 NW 30 43 16 23 1006.4 1006.4 0.0
14/11:30am 11.7 6.0 9.8 88 1.0 NW 30 43 16 23 1006.6 1006.6 0.0
14/11:00am 11.5 3.7 9.8 89 0.9 WNW 41 54 22 29 1006.6 1006.6 0.0
14/10:51am 11.4 4.7 9.8 90 0.8 WNW 35 54 19 29 1006.4 1006.4 0.0
14/10:30am 11.4 5.2 10.1 92 0.7 WNW 33 41 18 22 1006.5 1006.5 0.0
14/10:00am 11.4 4.8 10.1 92 0.7 WNW 35 48 19 26 1006.5 1006.5 0.0
14/09:40am 11.0 4.0 9.9 93 0.6 WNW 37 56 20 30 1006.5 1006.5 0.0
14/09:30am 10.9 3.1 9.8 93 0.6 W 41 52 22 28 1006.2 1006.2 0.0
14/09:00am 10.9 3.1 9.8 93 0.6 WNW 41 63 22 34 1005.9 1005.9 2.2
14/08:58am 11.3 4.0 10.2 93 0.6 WNW 39 57 21 31 1006.0 1006.0 2.2
14/08:30am 11.4 4.1 10.3 93 0.6 WNW 39 57 21 31 1005.8 1005.8 2.2
14/08:00am 11.6 5.1 10.5 93 0.6 WNW 35 48 19 26 1005.9 1005.9 2.0
14/07:30am 11.6 4.8 10.5 93 0.6 WNW 37 50 20 27 1005.8 1005.8 2.0
14/07:00am 11.7 5.6 10.4 92 0.7 WNW 33 43 18 23 1005.7 1005.7 2.0
14/06:30am 11.6 5.7 10.3 92 0.7 WNW 32 43 17 23 1005.7 1005.7 2.0
14/06:00am 11.5 5.0 10.2 92 0.7 WNW 35 46 19 25 1005.5 1005.5 2.0
14/05:30am 11.5 5.9 10.2 92 0.7 WNW 30 46 16 25 1005.4 1005.4 1.8
14/05:00am 11.4 4.8 10.1 92 0.7 WNW 35 46 19 25 1005.4 1005.4 1.8
14/04:30am 11.3 4.7 10.0 92 0.7 WNW 35 48 19 26 1005.4 1005.4 1.8
14/04:00am 11.4 4.8 10.0 91 0.7 WNW 35 46 19 25 1005.5 1005.5 1.8
14/03:30am 11.2 3.8 9.8 91 0.7 WNW 39 50 21 27 1005.6 1005.6 1.8
14/03:00am 11.3 5.0 9.7 90 0.8 WNW 33 48 18 26 1005.7 1005.7 1.8
14/02:30am 11.4 5.1 9.7 89 0.9 WNW 33 46 18 25 1006.2 1006.2 1.6
14/02:00am 11.2 6.2 9.5 89 0.9 WNW 26 39 14 21 1006.7 1006.7 1.6
14/01:30am 11.1 5.3 9.4 89 0.9 W 30 43 16 23 1006.8 1006.8 1.6
14/01:00am 11.0 5.5 9.1 88 0.9 W 28 37 15 20 1007.4 1007.4 1.6
14/12:30am 10.9 4.9 8.8 87 1.0 W 30 39 16 21 1007.6 1007.6 1.6
14/12:00am 10.9 6.0 8.5 85 1.2 W 24 35 13 19 1007.9 1007.9 1.6
 
Date/Time
EDT
Temp
°C
App
Temp
°C
Dew
Point
°C
Rel
Hum
%
Delta-T
°C
Wind Press
QNH
hPa
Press
MSL
hPa
Rain since
9am
mm
Dir  Spd
km/h
Gust
km/h
Spd
kts
Gust
kts
13/11:30pm 10.6 4.9 8.2 85 1.2 W 28 37 15 20 1008.1 1008.1 1.6
13/11:00pm 11.0 5.6 8.1 82 1.4 WNW 26 35 14 19 1008.6 1008.6 1.6
13/10:30pm 11.1 6.4 7.6 79 1.7 W 22 30 12 16 1008.9 1008.9 1.6
13/10:00pm 11.6 6.7 7.1 74 2.2 W 22 32 12 17 1008.9 1008.9 1.6
13/09:30pm 11.3 5.3 7.0 75 2.1 WSW 28 39 15 21 1008.9 1008.9 1.6
13/09:00pm 11.4 5.9 7.5 77 1.9 W 26 35 14 19 1009.1 1009.1 1.6
13/08:30pm 11.0 5.1 7.5 79 1.7 WSW 28 39 15 21 1008.9 1008.9 1.6
13/08:00pm 11.1 5.2 7.4 78 1.8 W 28 39 15 21 1008.6 1008.6 1.6
13/07:30pm 11.6 5.3 7.5 76 2.0 W 30 41 16 22 1008.2 1008.2 1.6
13/07:16pm 11.5 5.5 7.2 75 2.1 W 28 48 15 26 1008.0 1008.0 1.6
13/07:00pm 11.6 5.7 7.3 75 2.1 WSW 28 37 15 20 1008.0 1008.0 1.6
13/06:30pm 12.1 4.9 7.8 75 2.1 WSW 35 44 19 24 1007.3 1007.3 1.6
13/06:00pm 10.9 4.0 7.2 78 1.8 WSW 33 48 18 26 1007.1 1007.1 1.6
13/05:30pm 11.7 2.9 7.2 74 2.2 WSW 43 52 23 28 1006.7 1006.7 1.6
13/05:00pm 12.3 4.3 7.4 72 2.4 WSW 39 48 21 26 1006.3 1006.3 1.6
13/04:30pm 12.2 4.6 7.5 73 2.3 WSW 37 48 20 26 1006.0 1006.0 1.6
13/04:00pm 12.4 3.4 7.3 71 2.5 WSW 44 54 24 29 1005.6 1005.6 1.6
13/03:30pm 13.8 5.2 8.2 69 2.8 WSW 43 54 23 29 1005.2 1005.2 1.6
13/03:00pm 13.4 2.7 8.0 70 2.7 WSW 54 65 29 35 1004.7 1004.7 1.6
13/02:30pm 12.7 2.0 8.0 73 2.3 WSW 54 63 29 34 1004.4 1004.4 1.6
13/02:00pm 12.6 2.8 8.7 77 2.0 WSW 50 63 27 34 1004.2 1004.2 1.6
13/01:30pm 12.9 2.2 9.7 81 1.6 WSW 56 65 30 35 1004.1 1004.1 1.6
13/01:00pm 12.2 1.6 10.1 87 1.1 WSW 56 65 30 35 1003.5 1003.5 1.6
13/12:30pm 12.1 1.7 10.5 90 0.8 WSW 56 67 30 36 1003.2 1003.2 1.6
13/12:00pm 11.9 1.5 10.8 93 0.6 WSW 56 74 30 40 1002.9 1002.9 1.6
13/11:45am 11.4 2.0 10.3 93 0.6 WSW 50 69 27 37 1002.6 1002.6 1.6
13/11:30am 11.6 2.0 10.7 94 0.5 W 52 69 28 37 1002.6 1002.6 1.6
13/11:00am 11.5 3.4 10.6 94 0.5 W 44 67 24 36 1002.9 1002.9 1.4
13/10:50am 11.3 2.7 10.2 93 0.6 W 46 65 25 35 1002.7 1002.7 1.4
13/10:30am 11.2 2.5 10.1 93 0.6 WNW 46 61 25 33 1002.6 1002.6 1.4
13/10:00am 10.9 2.7 9.7 92 0.6 WNW 43 57 23 31 1003.2 1003.2 1.2
13/09:30am 10.7 2.4 9.3 91 0.7 W 43 54 23 29 1003.5 1003.5 0.8
13/09:00am 10.4 2.7 8.8 90 0.8 WNW 39 54 21 29 1003.7 1003.7 4.2
13/08:48am 10.3 1.8 8.7 90 0.8 WNW 43 63 23 34 1003.8 1003.8 3.8
13/08:30am 10.3 1.2 8.6 89 0.8 WNW 46 61 25 33 1004.0 1004.0 3.4
13/08:00am 9.8 1.9 7.9 88 0.9 WNW 39 50 21 27 1004.0 1004.0 3.0
13/07:41am 9.7 1.7 7.5 86 1.0 WNW 39 57 21 31 1004.3 1004.3 2.8
13/07:30am 9.8 3.5 7.6 86 1.1 WNW 30 46 16 25 1004.6 1004.6 2.8
13/07:00am 9.6 2.8 6.9 83 1.3 WNW 32 43 17 23 1005.0 1005.0 2.2
13/06:35am 9.7 2.7 6.1 78 1.7 W 32 56 17 30 1005.2 1005.2 2.0
13/06:30am 9.7 2.7 6.1 78 1.7 W 32 44 17 24 1005.2 1005.2 2.0
13/06:17am 10.0 3.0 6.0 76 1.8 W 32 52 17 28 1005.1 1005.1 1.8
13/06:00am 9.9 2.7 5.9 76 1.8 W 33 46 18 25 1005.2 1005.2 1.8
13/05:30am 9.5 1.2 5.9 78 1.7 W 39 57 21 31 1005.1 1005.1 1.8
13/05:00am 9.1 -0.9 6.2 82 1.3 WSW 48 59 26 32 1004.8 1004.8 1.8
13/04:30am 8.7 -0.1 5.6 81 1.4 SW 41 50 22 27 1005.1 1005.1 1.6
13/04:23am 9.3 0.3 6.2 81 1.4 WSW 43 52 23 28 1005.1 1005.1 1.6
13/04:11am 9.1 1.9 5.8 80 1.5 W 33 54 18 29 1005.0 1005.0 1.6
13/04:00am 8.9 1.6 5.6 80 1.5 WSW 33 43 18 23 1005.2 1005.2 1.6
13/03:30am 9.2 -0.3 4.8 74 2.0 WSW 44 59 24 32 1005.4 1005.4 1.6
13/03:26am 9.3 0.7 4.9 74 2.0 WSW 39 59 21 32 1005.2 1005.2 1.6
13/03:00am 8.9 0.0 5.1 77 1.7 WSW 41 50 22 27 1005.5 1005.5 1.6
13/02:30am 8.3 -1.0 5.1 80 1.4 WSW 43 50 23 27 1005.6 1005.6 1.6
13/02:00am 7.6 -0.7 4.2 79 1.5 SW 37 52 20 28 1006.0 1006.0 1.6
13/01:47am 7.8 -4.4 3.7 75 1.8 SW 57 78 31 42 1006.0 1006.0 1.6
13/01:42am 8.7 -2.6 3.5 70 2.2 SW 52 78 28 42 1005.1 1005.1 1.4
13/01:40am 9.5 -0.5 4.3 70 2.3 WSW 46 74 25 40 1005.3 1005.3 1.4
13/01:30am 9.4 -0.6 4.2 70 2.3 WSW 46 54 25 29 1005.6 1005.6 1.4
13/01:00am 9.3 -0.7 4.1 70 2.3 WSW 46 59 25 32 1005.6 1005.6 1.4
13/12:30am 9.0 -1.3 4.6 74 2.0 SW 48 56 26 30 1005.7 1005.7 1.4

Other formats

Comma delimited format used in spreadsheet applications
http://www.bom.gov.au/fwo/IDT60801/IDT60801.94974.axf

JavaScript Object Notation format (JSON) in row-major order
http://www.bom.gov.au/fwo/IDT60801/IDT60801.94974.json

Data quality

Most of these data are generated automatically and are frequently updated. Quality checks on data are not normally performed. It is possible for incorrect values to appear. Refer to information at About Latest Weather Observations and please check the disclaimer before using these data.